createdAt,value
2019-04-16T00:00:51.935Z,101093.59
2019-04-16T00:03:23.198Z,101090.61
2019-04-16T00:05:58.478Z,101095.41
2019-04-16T00:08:32.727Z,101094.04
2019-04-16T00:11:03.715Z,101095.36
2019-04-16T00:13:38.208Z,101089.00
2019-04-16T00:16:12.732Z,101079.55
2019-04-16T00:18:38.730Z,101077.75
2019-04-16T00:21:15.405Z,101071.95
2019-04-16T00:24:02.707Z,101072.56
2019-04-16T00:26:32.114Z,101071.60
2019-04-16T00:29:02.830Z,101069.93
2019-04-16T00:31:34.366Z,101059.48
2019-04-16T00:34:04.524Z,101067.98
2019-04-16T00:36:34.132Z,101072.92
2019-04-16T00:39:05.599Z,101070.39
2019-04-16T00:41:34.993Z,101072.09
2019-04-16T00:44:04.735Z,101068.73
2019-04-16T00:46:34.492Z,101068.73
2019-04-16T00:49:03.883Z,101073.64
2019-04-16T00:51:33.353Z,101070.28
2019-04-16T00:54:02.640Z,101064.28
2019-04-16T00:56:32.200Z,101062.81
2019-04-16T00:59:01.478Z,101064.64
2019-04-16T01:01:30.786Z,101062.21
2019-04-16T01:04:00.058Z,101060.29
2019-04-16T01:06:29.357Z,101060.29
2019-04-16T01:08:58.679Z,101062.04
2019-04-16T01:11:27.950Z,101065.54
2019-04-16T01:13:57.257Z,101061.97
2019-04-16T01:16:26.608Z,101059.18
2019-04-16T01:18:55.919Z,101050.53
2019-04-16T01:21:25.187Z,101051.97
2019-04-16T01:23:54.500Z,101045.50
2019-04-16T01:26:24.185Z,101047.40
2019-04-16T01:29:02.712Z,101042.11
2019-04-16T01:31:31.786Z,101042.83
2019-04-16T01:34:05.686Z,101031.80
2019-04-16T01:36:36.598Z,101031.80
2019-04-16T01:39:17.317Z,101033.11
2019-04-16T01:41:40.244Z,101026.12
2019-04-16T01:44:09.547Z,101021.44
2019-04-16T01:46:39.361Z,101028.90
2019-04-16T01:49:10.453Z,101022.27
2019-04-16T01:51:39.831Z,100989.80
2019-04-16T01:54:09.115Z,101021.19
2019-04-16T01:56:38.430Z,101015.16
2019-04-16T01:59:07.961Z,101008.55
2019-04-16T02:01:37.256Z,101008.55
2019-04-16T02:04:06.545Z,101011.44
2019-04-16T02:06:35.920Z,101014.23
2019-04-16T02:09:21.266Z,101006.98
2019-04-16T02:11:41.472Z,101003.16
2019-04-16T02:14:10.418Z,101002.19
2019-04-16T02:16:39.688Z,101011.55
2019-04-16T02:19:09.203Z,101006.41
2019-04-16T02:21:39.018Z,101003.62
2019-04-16T02:24:09.796Z,101003.62
2019-04-16T02:26:39.062Z,101000.32
2019-04-16T02:29:08.528Z,100997.72
2019-04-16T02:31:37.806Z,101000.22
2019-04-16T02:34:07.117Z,101000.47
2019-04-16T02:36:36.796Z,100993.97
2019-04-16T02:39:09.077Z,100996.61
2019-04-16T02:41:38.596Z,100994.06
2019-04-16T02:44:14.048Z,100998.97
2019-04-16T02:46:39.060Z,100995.63
2019-04-16T02:49:08.446Z,101005.41
2019-04-16T02:51:42.299Z,101000.04
2019-04-16T02:54:16.627Z,101001.47
2019-04-16T02:56:51.503Z,101005.59
2019-04-16T02:59:26.865Z,101004.86
2019-04-16T03:02:16.344Z,101006.66
2019-04-16T03:04:47.353Z,101003.52
2019-04-16T03:07:18.497Z,100997.89
2019-04-16T03:10:00.659Z,101002.16
2019-04-16T03:12:20.829Z,101008.81
2019-04-16T03:14:51.856Z,101006.05
2019-04-16T03:17:29.021Z,101002.27
2019-04-16T03:20:06.161Z,101008.06
2019-04-16T03:22:35.467Z,100991.25
2019-04-16T03:25:12.542Z,100988.48
2019-04-16T03:27:37.923Z,100994.50
2019-04-16T03:30:08.340Z,100990.16
2019-04-16T03:32:50.594Z,100990.16
2019-04-16T03:35:25.011Z,100989.85
2019-04-16T03:37:51.045Z,100987.52
2019-04-16T03:40:24.721Z,100992.09
2019-04-16T03:42:51.562Z,100992.91
2019-04-16T03:45:20.891Z,100986.22
2019-04-16T03:47:51.314Z,100988.52
2019-04-16T03:50:21.485Z,100983.68
2019-04-16T03:52:50.796Z,100982.39
2019-04-16T03:55:25.277Z,100980.64
2019-04-16T03:57:51.102Z,100970.77
2019-04-16T04:00:21.259Z,100965.65
2019-04-16T04:02:53.895Z,100971.65
2019-04-16T04:05:21.585Z,100980.95
2019-04-16T04:07:51.078Z,100970.50
2019-04-16T04:10:30.590Z,100970.50
2019-04-16T04:12:51.501Z,100972.09
2019-04-16T04:15:26.019Z,100971.65
2019-04-16T04:17:51.922Z,100969.94
2019-04-16T04:20:21.210Z,100969.13
2019-04-16T04:22:50.524Z,100976.81
2019-04-16T04:25:20.047Z,100976.81
2019-04-16T04:27:49.352Z,100977.72
2019-04-16T04:30:20.403Z,100977.72
2019-04-16T04:32:49.792Z,100975.18
2019-04-16T04:35:21.787Z,100996.66
2019-04-16T04:37:50.262Z,100930.09
2019-04-16T04:40:19.659Z,100977.69
2019-04-16T04:42:49.010Z,100978.19
2019-04-16T04:45:18.295Z,100978.45
2019-04-16T04:47:51.182Z,100965.60
2019-04-16T04:50:18.620Z,100965.60
2019-04-16T04:52:47.928Z,100967.91
2019-04-16T04:55:17.198Z,100967.28
2019-04-16T04:57:46.511Z,100974.49
2019-04-16T05:00:16.325Z,100976.80
2019-04-16T05:02:45.625Z,100976.80
2019-04-16T05:05:24.090Z,100978.02
2019-04-16T05:07:50.496Z,100976.90
2019-04-16T05:10:19.939Z,100976.90
2019-04-16T05:12:50.419Z,100975.41
2019-04-16T05:15:20.224Z,100975.41
2019-04-16T05:17:49.533Z,100985.16
2019-04-16T05:20:18.808Z,100990.11
2019-04-16T05:22:50.594Z,100986.72
2019-04-16T05:25:19.346Z,100990.93
2019-04-16T05:27:48.656Z,100998.01
2019-04-16T05:30:21.126Z,100982.41
2019-04-16T05:32:48.957Z,100981.33
2019-04-16T05:35:18.265Z,100982.84
2019-04-16T05:37:48.544Z,100979.49
2019-04-16T05:40:18.601Z,100976.03
2019-04-16T05:42:47.839Z,100976.03
2019-04-16T05:45:17.278Z,100987.06
2019-04-16T05:47:49.039Z,100984.97
2019-04-16T05:50:17.591Z,100985.69
2019-04-16T05:52:46.867Z,100993.44
2019-04-16T05:55:19.291Z,100989.67
2019-04-16T05:57:50.887Z,100986.67
2019-04-16T06:00:38.624Z,100989.54
2019-04-16T06:03:08.957Z,100992.00
2019-04-16T06:05:38.848Z,100992.70
2019-04-16T06:08:12.017Z,100991.28
2019-04-16T06:10:41.402Z,100987.89
2019-04-16T06:13:13.189Z,100990.25
2019-04-16T06:15:47.387Z,100991.52
2019-04-16T06:18:37.919Z,100995.68
2019-04-16T06:21:25.844Z,100988.75
2019-04-16T06:24:03.061Z,100987.67
2019-04-16T06:26:40.997Z,100995.40
2019-04-16T06:29:29.436Z,100991.98
2019-04-16T06:32:16.920Z,100988.45
2019-04-16T06:34:47.839Z,100987.58
2019-04-16T06:37:27.477Z,100980.30
2019-04-16T06:40:00.601Z,100976.06
2019-04-16T06:42:32.603Z,100976.81
2019-04-16T06:45:04.907Z,100967.30
2019-04-16T06:47:48.014Z,100964.00
2019-04-16T06:50:31.085Z,100964.88
2019-04-16T06:53:12.675Z,100962.33
2019-04-16T06:55:52.588Z,100959.47
2019-04-16T06:58:27.978Z,100965.77
2019-04-16T07:01:13.749Z,100954.73
2019-04-16T07:03:47.393Z,100950.63
2019-04-16T07:06:36.385Z,100947.09
2019-04-16T07:09:09.356Z,100940.08
2019-04-16T07:11:53.487Z,100937.14
2019-04-16T07:14:14.786Z,100933.81
2019-04-16T07:16:42.435Z,100928.22
2019-04-16T07:19:11.923Z,100922.30
2019-04-16T07:21:41.785Z,100915.58
2019-04-16T07:24:11.256Z,100922.50
2019-04-16T07:26:46.149Z,100917.09
2019-04-16T07:29:22.004Z,100911.63
2019-04-16T07:31:56.074Z,100918.03
2019-04-16T07:34:39.007Z,100929.15
2019-04-16T07:37:24.904Z,100916.95
2019-04-16T07:39:58.642Z,100920.25
2019-04-16T07:42:52.110Z,100907.73
2019-04-16T07:45:18.487Z,100910.46
2019-04-16T07:48:06.923Z,100897.31
2019-04-16T07:50:41.074Z,100902.67
2019-04-16T07:53:21.221Z,100905.07
2019-04-16T07:55:52.184Z,100898.09
2019-04-16T07:58:21.479Z,100898.05
2019-04-16T08:00:50.797Z,100899.88
2019-04-16T08:03:20.125Z,100899.64
2019-04-16T08:05:49.440Z,100905.59
2019-04-16T08:08:18.917Z,100900.94
2019-04-16T08:10:50.177Z,100896.16
2019-04-16T08:13:19.869Z,100888.07
2019-04-16T08:15:49.304Z,100889.41
2019-04-16T08:18:18.641Z,100887.97
2019-04-16T08:21:00.606Z,100892.18
2019-04-16T08:23:30.339Z,100888.77
2019-04-16T08:26:03.989Z,100887.00
2019-04-16T08:28:32.526Z,100886.28
2019-04-16T08:31:03.087Z,100894.52
2019-04-16T08:33:32.396Z,100893.05
2019-04-16T08:36:01.725Z,100897.00
2019-04-16T08:38:34.083Z,100897.52
2019-04-16T08:41:02.123Z,100884.30
2019-04-16T08:43:31.428Z,100881.78
2019-04-16T08:46:00.843Z,100879.57
2019-04-16T08:48:30.163Z,100873.85
2019-04-16T08:50:59.616Z,100878.69
2019-04-16T08:53:29.135Z,100867.89
2019-04-16T08:55:58.465Z,100856.21
2019-04-16T08:58:27.775Z,100855.61
2019-04-16T09:00:57.269Z,100861.55
2019-04-16T09:03:26.912Z,100866.34
2019-04-16T09:05:57.697Z,100864.66
2019-04-16T09:08:28.702Z,100867.67
2019-04-16T09:11:00.469Z,100869.20
2019-04-16T09:13:30.673Z,100857.57
2019-04-16T09:16:00.657Z,100853.81
2019-04-16T09:18:43.517Z,100864.42
2019-04-16T09:21:12.833Z,100861.97
2019-04-16T09:23:43.780Z,100851.48
2019-04-16T09:26:18.582Z,100858.76
2019-04-16T09:28:56.379Z,100851.82
2019-04-16T09:31:27.342Z,100846.87
2019-04-16T09:34:07.175Z,100844.82
2019-04-16T09:36:50.764Z,100855.47
2019-04-16T09:39:22.031Z,100846.36
2019-04-16T09:41:52.225Z,100847.80
2019-04-16T09:44:21.520Z,100845.02
2019-04-16T09:46:52.201Z,100848.13
2019-04-16T09:49:21.874Z,100844.27
2019-04-16T09:51:51.302Z,100833.95
2019-04-16T09:54:20.736Z,100833.91
2019-04-16T09:56:50.063Z,100838.23
2019-04-16T09:59:21.175Z,100838.50
2019-04-16T10:01:53.431Z,100840.66
2019-04-16T10:04:23.027Z,100838.23
2019-04-16T10:06:52.346Z,100833.96
2019-04-16T10:09:22.704Z,100835.66
2019-04-16T10:11:52.537Z,100825.92
2019-04-16T10:14:22.214Z,100834.70
2019-04-16T10:16:51.677Z,100824.48
2019-04-16T10:19:21.830Z,100829.89
2019-04-16T10:21:54.232Z,100825.75
2019-04-16T10:24:40.415Z,100827.84
2019-04-16T10:27:11.449Z,100823.27
2019-04-16T10:29:40.769Z,100816.70
2019-04-16T10:32:10.565Z,100825.72
2019-04-16T10:34:40.659Z,100819.39
2019-04-16T10:37:09.947Z,100822.23
2019-04-16T10:39:40.924Z,100821.03
2019-04-16T10:42:23.864Z,100805.77
2019-04-16T10:45:04.065Z,100803.56
2019-04-16T10:47:43.886Z,100800.13
2019-04-16T10:50:21.108Z,100808.65
2019-04-16T10:53:08.297Z,100795.06
2019-04-16T10:55:45.536Z,100805.47
2019-04-16T10:58:16.491Z,100807.64
2019-04-16T11:00:47.792Z,100794.64
2019-04-16T11:03:28.806Z,100790.05
2019-04-16T11:06:00.162Z,100791.12
2019-04-16T11:08:29.449Z,100792.13
2019-04-16T11:10:58.745Z,100797.47
2019-04-16T11:13:33.159Z,100798.18
2019-04-16T11:16:07.023Z,100788.09
2019-04-16T11:18:36.333Z,100795.03
2019-04-16T11:21:05.612Z,100789.30
2019-04-16T11:23:34.906Z,100801.25
2019-04-16T11:26:04.842Z,100787.47
2019-04-16T11:28:34.250Z,100786.45
2019-04-16T11:31:08.197Z,100787.59
2019-04-16T11:33:37.601Z,100786.48
2019-04-16T11:36:18.842Z,100780.47
2019-04-16T11:38:37.953Z,100801.52
2019-04-16T11:41:07.321Z,100780.34
2019-04-16T11:43:37.120Z,100778.12
2019-04-16T11:46:06.704Z,100787.30
2019-04-16T11:48:37.471Z,100781.20
2019-04-16T11:51:07.059Z,100797.09
2019-04-16T11:53:36.341Z,100778.59
2019-04-16T11:56:06.071Z,100792.41
2019-04-16T11:58:46.061Z,100780.67
2019-04-16T12:01:23.052Z,100778.59
2019-04-16T12:04:05.306Z,100781.04
2019-04-16T12:06:42.389Z,100772.66
2019-04-16T12:09:29.450Z,100776.52
2019-04-16T12:12:00.506Z,100778.47
2019-04-16T12:14:46.635Z,100785.81
2019-04-16T12:17:23.679Z,100778.11
2019-04-16T12:19:54.744Z,100783.93
2019-04-16T12:22:28.863Z,100784.41
2019-04-16T12:25:16.443Z,100775.91
2019-04-16T12:27:53.060Z,100789.84
2019-04-16T12:30:36.192Z,100788.91
2019-04-16T12:33:08.998Z,100787.72
2019-04-16T12:35:51.759Z,100785.32
2019-04-16T12:38:28.724Z,100785.56
2019-04-16T12:40:59.619Z,100783.17
2019-04-16T12:43:30.579Z,100783.05
2019-04-16T12:46:17.935Z,100786.89
2019-04-16T12:48:54.969Z,100789.23
2019-04-16T12:51:31.682Z,100777.84
2019-04-16T12:54:02.670Z,100784.20
2019-04-16T12:56:36.712Z,100792.23
2019-04-16T12:59:06.869Z,100777.13
2019-04-16T13:01:49.821Z,100780.52
2019-04-16T13:04:20.777Z,100782.09
2019-04-16T13:06:54.372Z,100782.27
2019-04-16T13:09:34.495Z,100781.29
2019-04-16T13:12:09.933Z,100782.93
2019-04-16T13:15:00.611Z,100777.78
2019-04-16T13:17:41.051Z,100771.42
2019-04-16T13:20:16.024Z,100779.42
2019-04-16T13:22:46.970Z,100782.22
2019-04-16T13:25:17.919Z,100768.73
2019-04-16T13:27:50.848Z,100778.08
2019-04-16T13:30:19.550Z,100775.46
2019-04-16T13:32:48.854Z,100784.27
2019-04-16T13:35:18.511Z,100778.19
2019-04-16T13:37:47.868Z,100782.70
2019-04-16T13:40:19.266Z,100776.03
2019-04-16T13:42:48.551Z,100778.02
2019-04-16T13:45:27.065Z,100777.80
2019-04-16T13:47:56.479Z,100774.17
2019-04-16T13:53:39.768Z,100773.23
2019-04-16T13:56:28.607Z,100773.32
2019-04-16T13:59:11.523Z,100758.90
2019-04-16T14:01:46.026Z,100757.83
2019-04-16T14:04:14.214Z,100770.27
2019-04-16T14:06:46.085Z,100754.02
2019-04-16T14:09:15.007Z,100753.04
2019-04-16T14:11:44.383Z,100752.84
2019-04-16T14:14:17.399Z,100750.25
2019-04-16T14:16:45.269Z,100754.17
2019-04-16T14:19:14.591Z,100758.67
2019-04-16T14:21:43.920Z,100758.63
2019-04-16T14:24:13.215Z,100749.81
2019-04-16T14:26:43.109Z,100749.00
2019-04-16T14:29:12.561Z,100752.45
2019-04-16T14:31:42.127Z,100749.32
2019-04-16T14:34:15.755Z,100753.39
2019-04-16T14:36:45.060Z,100753.45
2019-04-16T14:39:16.003Z,100752.94
2019-04-16T14:41:49.933Z,100755.04
2019-04-16T14:44:18.656Z,100757.45
2019-04-16T14:46:47.937Z,100752.07
2019-04-16T14:49:18.383Z,100748.75
2019-04-16T14:51:48.518Z,100750.42
2019-04-16T14:54:19.509Z,100747.72
2019-04-16T14:56:53.311Z,100750.89
2019-04-16T14:59:40.454Z,100748.13
2019-04-16T15:02:11.401Z,100752.32
2019-04-16T15:04:58.284Z,100758.67
2019-04-16T15:07:45.843Z,100757.41
2019-04-16T15:10:16.914Z,100758.44
2019-04-16T15:12:50.507Z,100761.12
2019-04-16T15:15:24.198Z,100756.30
2019-04-16T15:18:07.162Z,100750.61
2019-04-16T15:20:54.539Z,100761.67
2019-04-16T15:23:37.050Z,100760.39
2019-04-16T15:26:16.858Z,100770.84
2019-04-16T15:28:47.814Z,100769.47
2019-04-16T15:31:18.752Z,100767.69
2019-04-16T15:33:55.771Z,100766.02
2019-04-16T15:36:27.014Z,100768.91
2019-04-16T15:39:04.534Z,100778.04
2019-04-16T15:41:35.731Z,100774.88
2019-04-16T15:44:24.012Z,100780.80
2019-04-16T15:47:13.951Z,100783.30
2019-04-16T15:49:44.102Z,100785.87
2019-04-16T15:52:31.763Z,100791.81
2019-04-16T15:55:11.569Z,100791.70
2019-04-16T15:57:54.203Z,100794.84
2019-04-16T16:00:28.158Z,100806.78
2019-04-16T16:03:07.730Z,100814.66
2019-04-16T16:05:47.921Z,100821.38
2019-04-16T16:08:35.406Z,100825.03
2019-04-16T16:11:29.235Z,100825.74
2019-04-16T16:14:00.487Z,100833.12
2019-04-16T16:16:41.457Z,100844.36
2019-04-16T16:19:00.822Z,100843.50
2019-04-16T16:21:31.610Z,100850.00
2019-04-16T16:24:06.686Z,100846.66
2019-04-16T16:26:32.104Z,100856.63
2019-04-16T16:29:01.404Z,100856.09
2019-04-16T16:31:33.600Z,100860.97
2019-04-16T16:34:01.731Z,100864.50
2019-04-16T16:36:31.056Z,100879.27
2019-04-16T16:39:00.502Z,100876.38
2019-04-16T16:41:29.994Z,100883.52
2019-04-16T16:43:59.385Z,100886.95
2019-04-16T16:46:56.103Z,100892.30
2019-04-16T16:49:13.473Z,100854.89
2019-04-16T16:51:44.469Z,100909.70
2019-04-16T16:54:18.490Z,100910.17
2019-04-16T16:56:49.470Z,100905.81
2019-04-16T16:59:29.193Z,100906.71
2019-04-16T17:02:10.024Z,100908.37
2019-04-16T17:04:38.531Z,100881.26
2019-04-16T17:07:07.963Z,100918.17
2019-04-16T17:09:37.702Z,100926.20
2019-04-16T17:12:07.182Z,100925.16
2019-04-16T17:14:37.902Z,100920.00
2019-04-16T17:17:14.350Z,100928.17
2019-04-16T17:19:39.558Z,100928.17
2019-04-16T17:22:08.991Z,100934.36
2019-04-16T17:24:38.341Z,100933.72
2019-04-16T17:27:07.734Z,100924.84
2019-04-16T17:29:37.038Z,100936.84
2019-04-16T17:32:07.069Z,100942.31
2019-04-16T17:34:39.770Z,100937.31
2019-04-16T17:37:07.800Z,100942.86
2019-04-16T17:39:42.249Z,100948.66
2019-04-16T17:42:11.455Z,100949.84
2019-04-16T17:44:42.442Z,100950.84
2019-04-16T17:47:30.895Z,100956.38
2019-04-16T17:49:48.884Z,100960.39
2019-04-16T17:52:29.264Z,100961.56
2019-04-16T17:55:02.898Z,100957.37
2019-04-16T17:57:33.853Z,100967.87
2019-04-16T18:00:14.501Z,100978.66
2019-04-16T18:03:04.121Z,100980.81
2019-04-16T18:05:46.805Z,100977.19
2019-04-16T18:08:23.928Z,100981.05
2019-04-16T18:10:54.951Z,100985.41
2019-04-16T18:13:26.021Z,100993.55
2019-04-16T18:16:03.066Z,101001.66
2019-04-16T18:18:50.476Z,101002.29
2019-04-16T18:21:21.528Z,101012.41
2019-04-16T18:23:52.742Z,101012.85
2019-04-16T18:26:29.283Z,101015.85
2019-04-16T18:29:01.839Z,101018.68
2019-04-16T18:31:45.229Z,101018.98
2019-04-16T18:34:19.120Z,101029.31
2019-04-16T18:36:50.103Z,101030.01
2019-04-16T18:39:27.033Z,101040.30
2019-04-16T18:42:06.989Z,101037.89
2019-04-16T18:44:51.276Z,101035.89
2019-04-16T18:47:26.596Z,101036.41
2019-04-16T18:50:00.325Z,101038.55
2019-04-16T18:52:29.616Z,101042.86
2019-04-16T18:54:58.910Z,101058.59
2019-04-16T18:57:28.227Z,101049.34
2019-04-16T18:59:58.306Z,101060.79
2019-04-16T19:02:29.290Z,101064.51
2019-04-16T19:04:58.622Z,101068.94
2019-04-16T19:07:27.934Z,101072.08
2019-04-16T19:09:57.246Z,101070.22
2019-04-16T19:12:26.564Z,101069.57
2019-04-16T19:14:55.898Z,101072.84
2019-04-16T19:17:25.255Z,101071.70
2019-04-16T19:19:54.726Z,101075.06
2019-04-16T19:22:24.003Z,101082.39
2019-04-16T19:24:53.339Z,101085.13
2019-04-16T19:27:22.621Z,101086.86
2019-04-16T19:29:52.113Z,101088.93
2019-04-16T19:32:24.778Z,101090.92
2019-04-16T19:35:07.181Z,101090.40
2019-04-16T19:37:24.138Z,101093.31
2019-04-16T19:39:53.736Z,101097.52
2019-04-16T19:42:25.732Z,101096.62
2019-04-16T19:44:55.017Z,101100.97
2019-04-16T19:47:26.586Z,101100.92
2019-04-16T19:49:55.642Z,101102.69
2019-04-16T19:52:25.555Z,101109.42
2019-04-16T19:54:55.047Z,101113.00
2019-04-16T19:57:24.792Z,101109.28
2019-04-16T19:59:54.369Z,101109.22
2019-04-16T20:02:23.764Z,101110.58
2019-04-16T20:04:53.072Z,101109.61
2019-04-16T20:07:22.711Z,101113.25
2019-04-16T20:09:52.023Z,101114.98
2019-04-16T20:12:21.365Z,101120.21
2019-04-16T20:14:50.652Z,101111.80
2019-04-16T20:17:20.047Z,101114.88
2019-04-16T20:19:58.745Z,101119.80
2019-04-16T20:22:29.733Z,101119.02
2019-04-16T20:24:59.309Z,101119.56
2019-04-16T20:27:28.689Z,101122.91
2019-04-16T20:29:58.015Z,101123.64
2019-04-16T20:32:30.973Z,101129.45
2019-04-16T20:35:00.367Z,101128.02
2019-04-16T20:37:29.983Z,101128.94
2019-04-16T20:39:59.650Z,101129.61
2019-04-16T20:42:29.175Z,101128.92
2019-04-16T20:44:58.703Z,101127.30
2019-04-16T20:47:28.392Z,101131.94
2019-04-16T20:49:58.777Z,101137.58
2019-04-16T20:52:30.879Z,101138.70
2019-04-16T20:54:59.383Z,101140.44
2019-04-16T20:57:28.919Z,101137.45
2019-04-16T20:59:58.468Z,101141.91
2019-04-16T21:02:29.584Z,101146.45
2019-04-16T21:05:02.686Z,101148.54
2019-04-16T21:07:30.162Z,101149.93
2019-04-16T21:10:00.121Z,101148.81
2019-04-16T21:12:30.615Z,101150.12
2019-04-16T21:15:00.004Z,101158.84
2019-04-16T21:17:29.312Z,101155.20
2019-04-16T21:19:58.635Z,101157.12
2019-04-16T21:22:28.904Z,101161.98
2019-04-16T21:24:58.534Z,101160.91
2019-04-16T21:27:27.824Z,101163.16
2019-04-16T21:29:57.142Z,101161.50
2019-04-16T21:32:31.188Z,101170.27
2019-04-16T21:35:06.273Z,101161.30
2019-04-16T21:37:36.122Z,101162.22
2019-04-16T21:40:07.860Z,101165.66
2019-04-16T21:42:37.214Z,101168.76
2019-04-16T21:45:08.399Z,101164.08
2019-04-16T21:47:38.027Z,101164.00
2019-04-16T21:50:08.464Z,101162.12
2019-04-16T21:52:37.964Z,101161.53
2019-04-16T21:55:08.623Z,101160.78
2019-04-16T21:57:37.983Z,101166.12
2019-04-16T22:00:10.473Z,101170.62
2019-04-16T22:02:41.386Z,101166.19
2019-04-16T22:05:11.299Z,101168.30
2019-04-16T22:07:40.592Z,101172.86
2019-04-16T22:10:11.294Z,101176.92
2019-04-16T22:12:40.609Z,101177.91
2019-04-16T22:15:09.958Z,101174.86
2019-04-16T22:17:39.290Z,101178.25
2019-04-16T22:20:09.126Z,101176.97
2019-04-16T22:22:38.484Z,101181.39
2019-04-16T22:25:08.331Z,101188.34
2019-04-16T22:27:39.765Z,101187.48
2019-04-16T22:30:09.080Z,101186.50
2019-04-16T22:32:38.387Z,101190.41
2019-04-16T22:35:08.412Z,101191.17
2019-04-16T22:37:37.938Z,101198.60
2019-04-16T22:40:26.343Z,101194.82
2019-04-16T22:43:05.642Z,101192.67
2019-04-16T22:45:32.778Z,101193.02
2019-04-16T22:48:02.597Z,101196.66
2019-04-16T22:50:34.871Z,101202.17
2019-04-16T22:53:03.147Z,101190.56
2019-04-16T22:55:32.520Z,101195.52
2019-04-16T22:58:03.591Z,101195.25
2019-04-16T23:00:46.624Z,101191.48
2019-04-16T23:03:16.615Z,101199.47
2019-04-16T23:05:46.928Z,101201.35
2019-04-16T23:08:16.229Z,101205.26
2019-04-16T23:10:45.525Z,101205.42
2019-04-16T23:13:14.845Z,101206.75
2019-04-16T23:15:44.186Z,101208.98
2019-04-16T23:18:17.274Z,101211.14
2019-04-16T23:20:44.513Z,101209.97
2019-04-16T23:23:18.160Z,101212.42
2019-04-16T23:25:44.830Z,101210.63
2019-04-16T23:28:14.133Z,101216.07
2019-04-16T23:30:43.484Z,101220.63
2019-04-16T23:33:12.794Z,101218.44
2019-04-16T23:35:44.303Z,101219.50
2019-04-16T23:38:13.100Z,101224.95
2019-04-16T23:40:43.901Z,101221.47
2019-04-16T23:43:23.590Z,101220.33
2019-04-16T23:46:01.692Z,101218.44
2019-04-16T23:48:39.581Z,101212.29
2019-04-16T23:51:19.469Z,101211.60
2019-04-16T23:53:50.415Z,101219.99
2019-04-16T23:56:30.335Z,101216.83
2019-04-16T23:59:06.795Z,101214.02
